Time;durP1;ratioP1;P1;durP2;ratioP2;P2;SDS_P1;SDS_P2;PMS_P1;PMS_P2;Temp;Humidity;BMP_temperature;BMP_pressure;BME280_temperature;BME280_humidity;BME280_pressure;Samples;Min_cycle;Max_cycle;Signal;HPM_P1;HPM_P2
2022/01/19 00:01:25;;;;;;;9.98;6.93;;;21.70;43.00;;;;;;5067386;28;20033;-61
2022/01/19 00:03:51;;;;;;;9.90;6.28;;;21.60;43.00;;;;;;5066365;28;20083;-61
2022/01/19 00:06:17;;;;;;;9.88;5.82;;;21.60;42.90;;;;;;5067015;28;38635;-61
2022/01/19 00:08:43;;;;;;;10.10;6.95;;;21.60;43.00;;;;;;5069618;28;20056;-61
2022/01/19 00:11:09;;;;;;;9.38;7.15;;;21.60;42.90;;;;;;5069064;28;20037;-61
2022/01/19 00:13:35;;;;;;;8.75;6.05;;;21.50;42.80;;;;;;5067759;28;20553;-61
2022/01/19 00:16:01;;;;;;;8.93;6.40;;;21.50;42.80;;;;;;5066924;28;20044;-61
2022/01/19 00:18:26;;;;;;;10.93;6.40;;;21.50;42.80;;;;;;5066234;28;20516;-61
2022/01/19 00:20:54;;;;;;;8.32;6.20;;;21.50;42.80;;;;;;5065341;28;43414;-61
2022/01/19 00:23:20;;;;;;;12.30;7.90;;;21.50;42.90;;;;;;5069355;28;20166;-62
2022/01/19 00:25:48;;;;;;;10.80;7.30;;;21.40;42.80;;;;;;5067540;28;20040;-61
2022/01/19 00:28:14;;;;;;;9.38;6.88;;;21.50;42.90;;;;;;5069295;28;20412;-61
2022/01/19 00:30:40;;;;;;;10.20;6.93;;;21.40;42.90;;;;;;5064152;28;20048;-61
2022/01/19 00:33:06;;;;;;;9.73;6.90;;;21.40;42.80;;;;;;5068179;28;20172;-61
2022/01/19 00:35:35;;;;;;;11.63;7.10;;;21.40;42.90;;;;;;5063403;28;25239;-61
2022/01/19 00:38:01;;;;;;;9.85;6.80;;;21.40;42.80;;;;;;5070584;28;20036;-61
2022/01/19 00:40:27;;;;;;;9.80;7.03;;;21.40;42.80;;;;;;5066494;28;20624;-61
2022/01/19 00:42:53;;;;;;;11.75;7.10;;;21.30;42.80;;;;;;5065404;28;20124;-61
2022/01/19 00:45:19;;;;;;;11.73;6.47;;;21.30;42.80;;;;;;5048040;28;20539;-61
2022/01/19 00:47:45;;;;;;;10.52;7.00;;;21.30;42.80;;;;;;5069196;28;20082;-61
2022/01/19 00:50:15;;;;;;;8.15;6.80;;;21.30;42.80;;;;;;5062378;28;38977;-61
2022/01/19 00:52:41;;;;;;;10.82;6.75;;;21.30;42.90;;;;;;5068840;28;20044;-61
2022/01/19 00:55:09;;;;;;;9.65;6.68;;;21.30;42.80;;;;;;5065163;28;20438;-61
2022/01/19 00:57:35;;;;;;;15.73;7.63;;;21.20;42.80;;;;;;5068636;28;20523;-61
2022/01/19 01:00:01;;;;;;;12.27;7.05;;;21.20;42.80;;;;;;5064315;28;20071;-60
2022/01/19 01:02:26;;;;;;;17.40;6.90;;;21.20;42.80;;;;;;5069047;28;20041;-61
2022/01/19 01:04:52;;;;;;;12.48;7.55;;;21.20;42.80;;;;;;5063558;28;34091;-61
2022/01/19 01:07:18;;;;;;;9.65;6.95;;;21.20;42.80;;;;;;5068695;28;20139;-61
2022/01/19 01:09:44;;;;;;;12.57;7.28;;;21.10;42.70;;;;;;5064952;28;20101;-61
2022/01/19 01:12:20;;;;;;;10.55;6.75;;;21.20;42.80;;;;;;5068343;28;20912;-61
2022/01/19 01:20:15;;;;;;;10.60;6.28;;;21.10;42.80;;;;;;5067493;28;20166;-61
2022/01/19 01:22:41;;;;;;;11.00;7.35;;;21.10;42.80;;;;;;5066386;28;20028;-61
2022/01/19 01:25:08;;;;;;;13.20;7.57;;;21.00;42.70;;;;;;5067163;28;20494;-61
2022/01/19 01:27:33;;;;;;;11.25;6.55;;;21.00;42.80;;;;;;5070734;28;20190;-61
2022/01/19 01:29:59;;;;;;;12.63;7.47;;;21.00;42.80;;;;;;5068032;28;20127;-61
2022/01/19 01:32:25;;;;;;;12.38;6.40;;;21.00;42.90;;;;;;5069356;28;34074;-61
2022/01/19 01:34:52;;;;;;;11.10;6.82;;;21.00;42.90;;;;;;5069480;28;20495;-61
2022/01/19 01:37:18;;;;;;;11.25;6.75;;;21.00;42.80;;;;;;5069756;28;20071;-61
2022/01/19 01:39:44;;;;;;;9.57;6.35;;;20.90;42.80;;;;;;5070007;28;20040;-61
2022/01/19 01:42:11;;;;;;;11.55;7.03;;;20.90;42.80;;;;;;5070296;28;20371;-61
2022/01/19 01:44:39;;;;;;;9.57;7.05;;;20.90;42.80;;;;;;5068865;28;20047;-61
2022/01/19 01:47:06;;;;;;;10.52;6.82;;;20.90;42.80;;;;;;5070046;28;34167;-61
2022/01/19 01:55:04;;;;;;;12.73;6.47;;;20.90;42.90;;;;;;5069916;28;20497;-61
2022/01/19 01:57:30;;;;;;;10.25;7.47;;;20.90;43.00;;;;;;5069457;28;20040;-61
2022/01/19 01:59:55;;;;;;;9.95;6.53;;;20.90;43.90;;;;;;5066797;28;38569;-62
2022/01/19 02:02:21;;;;;;;10.07;6.50;;;20.90;43.30;;;;;;5070250;28;20098;-61
2022/01/19 02:04:47;;;;;;;9.55;6.82;;;20.90;43.50;;;;;;5068939;28;20082;-61
2022/01/19 02:07:31;;;;;;;7.75;6.13;;;20.90;43.50;;;;;;5070864;28;20163;-62
2022/01/19 02:10:01;;;;;;;8.98;6.00;;;20.80;43.50;;;;;;5070738;28;20044;-61
2022/01/19 02:23:39;;;;;;;11.50;6.05;;;20.80;43.80;;;;;;5068718;28;20408;-61
2022/01/19 02:26:11;;;;;;;9.30;5.95;;;20.80;43.80;;;;;;5071186;28;20118;-61
2022/01/19 02:36:39;;;;;;;7.80;5.68;;;20.70;43.90;;;;;;5072829;28;20884;-61
2022/01/19 02:41:51;;;;;;;11.40;6.53;;;20.70;44.00;;;;;;5067319;28;40745;-61
2022/01/19 02:44:33;;;;;;;7.55;5.88;;;20.70;44.00;;;;;;5067385;28;20094;-61
2022/01/19 02:49:44;;;;;;;8.75;5.45;;;20.70;44.00;;;;;;5071685;28;20044;-61
2022/01/19 02:52:10;;;;;;;7.20;5.80;;;20.70;44.00;;;;;;5069769;28;20307;-61
2022/01/19 02:54:36;;;;;;;8.25;5.97;;;20.70;44.00;;;;;;5068657;28;20075;-61
2022/01/19 02:57:03;;;;;;;11.40;6.57;;;20.60;43.90;;;;;;5069186;28;39193;-61
2022/01/19 03:10:15;;;;;;;11.15;6.20;;;20.60;43.90;;;;;;5070656;28;43602;-61
2022/01/19 03:12:40;;;;;;;9.10;5.72;;;20.60;43.90;;;;;;5065044;28;20492;-61
2022/01/19 03:15:11;;;;;;;8.23;5.90;;;20.60;43.80;;;;;;5070498;28;20085;-61
2022/01/19 03:17:37;;;;;;;9.68;5.75;;;20.60;43.80;;;;;;5068717;28;20041;-61
2022/01/19 03:20:05;;;;;;;12.18;5.90;;;20.60;43.80;;;;;;5064989;28;20815;-61
2022/01/19 03:22:38;;;;;;;6.32;4.90;;;20.60;43.70;;;;;;5068576;28;20430;-61
2022/01/19 03:25:11;;;;;;;10.02;5.88;;;20.60;43.70;;;;;;5068429;28;41081;-61
2022/01/19 03:27:36;;;;;;;9.73;5.72;;;20.50;43.60;;;;;;5071351;28;20058;-61
2022/01/19 03:30:04;;;;;;;12.15;6.10;;;20.50;43.60;;;;;;5066352;28;20048;-61
2022/01/19 03:32:29;;;;;;;10.27;6.05;;;20.50;43.60;;;;;;5071019;28;20555;-61
2022/01/19 03:34:55;;;;;;;6.68;5.15;;;20.50;43.60;;;;;;5067734;28;20097;-61
2022/01/19 03:37:21;;;;;;;8.38;4.45;;;20.50;43.60;;;;;;5069183;28;38614;-62
2022/01/19 03:39:46;;;;;;;9.95;5.10;;;20.50;43.60;;;;;;5066041;28;20041;-61
2022/01/19 03:42:12;;;;;;;9.40;5.20;;;20.50;43.50;;;;;;5070925;28;20032;-61
2022/01/19 03:44:37;;;;;;;6.50;4.55;;;20.50;43.60;;;;;;5064804;28;20497;-61
2022/01/19 03:47:04;;;;;;;7.07;4.85;;;20.50;43.70;;;;;;5071143;28;20139;-61
2022/01/19 03:49:33;;;;;;;8.00;4.50;;;20.50;43.60;;;;;;5066176;28;20462;-61
2022/01/19 03:52:02;;;;;;;6.55;4.68;;;20.50;43.60;;;;;;5069132;28;38475;-61
2022/01/19 03:54:29;;;;;;;5.30;4.80;;;20.40;43.50;;;;;;5063319;28;20053;-61
2022/01/19 03:56:56;;;;;;;6.80;4.75;;;20.50;43.50;;;;;;5068690;28;20040;-61
2022/01/19 03:59:21;;;;;;;7.57;4.38;;;20.40;43.40;;;;;;5067915;28;20122;-61
2022/01/19 04:01:51;;;;;;;6.50;4.38;;;20.40;43.30;;;;;;5067142;28;20049;-61
2022/01/19 04:04:35;;;;;;;5.07;4.55;;;20.40;43.40;;;;;;5066076;28;20118;-61
2022/01/19 04:09:33;;;;;;;6.90;4.10;;;20.40;43.20;;;;;;5070905;28;20393;-61
2022/01/19 04:11:59;;;;;;;8.02;3.92;;;20.40;43.10;;;;;;5053714;28;20055;-61
2022/01/19 04:14:25;;;;;;;5.30;3.85;;;20.40;43.10;;;;;;5070771;28;20048;-61
2022/01/19 04:17:12;;;;;;;4.72;3.60;;;20.40;43.00;;;;;;5065660;28;20036;-61
2022/01/19 04:19:44;;;;;;;4.15;3.63;;;20.40;43.00;;;;;;5064741;28;41120;-61
2022/01/19 04:22:17;;;;;;;5.70;3.72;;;20.30;43.00;;;;;;5070302;28;20072;-61
2022/01/19 04:24:43;;;;;;;6.20;3.83;;;20.30;43.00;;;;;;5069334;28;20048;-61
2022/01/19 04:30:05;;;;;;;4.43;3.72;;;20.30;42.80;;;;;;5066183;28;20158;-61
2022/01/19 04:32:39;;;;;;;6.28;4.07;;;20.30;42.70;;;;;;5068263;28;20036;-61
2022/01/19 04:35:08;;;;;;;4.78;3.60;;;20.30;42.80;;;;;;5061596;28;38649;-61
2022/01/19 05:05:10;;;;;;;4.80;3.90;;;20.10;42.20;;;;;;5070605;28;20155;-62
2022/01/19 05:15:31;;;;;;;4.72;4.05;;;20.10;42.00;;;;;;5070859;28;20048;-61
2022/01/19 05:17:57;;;;;;;5.47;4.30;;;20.10;42.00;;;;;;5071818;28;38671;-61
2022/01/19 05:20:23;;;;;;;5.35;4.30;;;20.10;42.00;;;;;;5062916;28;20048;-61
2022/01/19 05:22:48;;;;;;;5.15;4.18;;;20.10;41.90;;;;;;5074928;28;20040;-61
2022/01/19 05:25:14;;;;;;;4.40;4.00;;;20.10;41.90;;;;;;5069362;28;20040;-61
2022/01/19 05:27:39;;;;;;;4.75;4.18;;;20.10;42.00;;;;;;5071417;28;20101;-60
2022/01/19 05:30:05;;;;;;;5.03;4.28;;;20.10;41.90;;;;;;5067704;28;41068;-60
2022/01/19 05:32:31;;;;;;;5.00;4.18;;;20.10;41.90;;;;;;5069600;28;20388;-59
2022/01/19 05:34:56;;;;;;;4.35;3.95;;;20.00;41.90;;;;;;5074411;28;20040;-60
2022/01/19 05:37:22;;;;;;;4.03;3.72;;;20.00;41.90;;;;;;5070590;28;20503;-61
2022/01/19 05:39:48;;;;;;;4.10;3.70;;;20.00;41.90;;;;;;5074299;28;20517;-61
2022/01/19 05:42:16;;;;;;;4.00;3.70;;;20.00;41.90;;;;;;5068795;28;20036;-61
2022/01/19 05:44:44;;;;;;;4.07;3.72;;;20.00;41.90;;;;;;5072522;28;38867;-59
2022/01/19 05:47:14;;;;;;;4.40;4.00;;;20.00;41.90;;;;;;5068716;28;20036;-60
2022/01/19 05:49:43;;;;;;;4.28;3.88;;;20.00;41.90;;;;;;5070455;28;20486;-62
2022/01/19 05:52:10;;;;;;;4.13;3.72;;;20.00;41.90;;;;;;5068453;28;21201;-61
2022/01/19 05:54:35;;;;;;;3.85;3.55;;;20.00;42.10;;;;;;5071219;28;20305;-60
2022/01/19 05:57:02;;;;;;;4.30;3.90;;;20.00;42.10;;;;;;5069671;28;20516;-60
2022/01/19 05:59:28;;;;;;;4.70;4.28;;;20.00;42.00;;;;;;5069273;28;38642;-61
2022/01/19 06:01:55;;;;;;;4.60;3.80;;;20.00;42.00;;;;;;5071840;28;20066;-60
2022/01/19 06:04:21;;;;;;;4.40;4.07;;;20.00;42.10;;;;;;5069536;28;20127;-60
2022/01/19 06:06:49;;;;;;;4.43;4.03;;;20.00;42.10;;;;;;5069934;28;20921;-60
2022/01/19 06:09:32;;;;;;;5.60;4.90;;;20.00;42.20;;;;;;5071134;28;20087;-61
2022/01/19 06:11:58;;;;;;;4.47;4.07;;;20.00;42.20;;;;;;5066336;28;36337;-60
2022/01/19 06:14:23;;;;;;;4.40;4.00;;;20.00;42.20;;;;;;5069336;28;20449;-61
2022/01/19 06:16:49;;;;;;;4.78;4.28;;;20.00;42.30;;;;;;5069190;28;20105;-60
2022/01/19 06:19:19;;;;;;;4.72;4.20;;;20.00;42.20;;;;;;5069857;28;20578;-60
2022/01/19 06:21:45;;;;;;;4.88;4.47;;;20.00;42.30;;;;;;5070309;28;20111;-60
2022/01/19 06:24:10;;;;;;;5.30;4.72;;;20.00;42.20;;;;;;5073659;28;20044;-61
2022/01/19 06:26:36;;;;;;;4.82;4.28;;;20.00;42.20;;;;;;5066728;28;38621;-61
2022/01/19 06:29:03;;;;;;;5.55;4.22;;;20.00;42.20;;;;;;5075646;28;20067;-61
2022/01/19 06:31:28;;;;;;;4.95;4.45;;;20.00;42.20;;;;;;5068617;28;20049;-60
2022/01/19 06:33:54;;;;;;;5.25;4.50;;;20.00;42.20;;;;;;5070447;28;20498;-60
2022/01/19 06:36:20;;;;;;;5.32;4.03;;;20.00;42.10;;;;;;5068991;28;20535;-61
2022/01/19 06:38:46;;;;;;;5.10;4.65;;;20.00;42.30;;;;;;5070465;28;20033;-60
2022/01/19 06:41:11;;;;;;;4.68;4.28;;;20.10;42.30;;;;;;5067711;28;43599;-60
2022/01/19 06:43:37;;;;;;;4.10;3.70;;;20.10;42.20;;;;;;5069752;28;20411;-60
2022/01/19 06:46:02;;;;;;;4.30;3.90;;;20.00;42.30;;;;;;5072378;28;20630;-60
2022/01/19 06:48:28;;;;;;;4.75;3.53;;;20.10;42.40;;;;;;5067707;28;20138;-60
2022/01/19 06:50:54;;;;;;;4.43;4.03;;;20.10;42.40;;;;;;5071484;28;20085;-60
2022/01/19 06:53:20;;;;;;;4.38;3.97;;;20.10;42.40;;;;;;5064895;28;20035;-60
2022/01/19 06:55:46;;;;;;;5.13;3.80;;;20.10;42.40;;;;;;5069935;28;43478;-60
2022/01/19 06:58:12;;;;;;;5.45;4.32;;;20.10;42.30;;;;;;5070433;28;20094;-59
2022/01/19 07:00:37;;;;;;;4.72;4.15;;;20.10;42.30;;;;;;5068241;28;20042;-60
2022/01/19 07:03:03;;;;;;;5.80;4.00;;;20.10;42.30;;;;;;5070808;28;20123;-60
2022/01/19 07:05:28;;;;;;;4.15;3.75;;;20.20;42.30;;;;;;5067720;28;20399;-60
2022/01/19 07:07:57;;;;;;;4.40;4.00;;;20.20;42.20;;;;;;5068548;28;20042;-61
2022/01/19 07:10:23;;;;;;;4.47;4.07;;;20.20;42.20;;;;;;5064866;28;36978;-61
2022/01/19 07:12:50;;;;;;;5.80;4.00;;;20.20;42.20;;;;;;5073083;28;20079;-60
2022/01/19 07:15:16;;;;;;;5.32;3.92;;;20.20;43.10;;;;;;5069344;28;20044;-60
2022/01/19 07:17:42;;;;;;;5.22;4.00;;;20.20;42.30;;;;;;5069830;28;20047;-61
2022/01/19 07:20:09;;;;;;;5.88;4.68;;;20.20;42.30;;;;;;5069750;28;20036;-61
2022/01/19 07:22:34;;;;;;;4.75;4.10;;;20.20;43.00;;;;;;5068975;28;36173;-60
2022/01/19 07:25:00;;;;;;;4.70;4.25;;;20.20;42.40;;;;;;5067391;28;20142;-60
2022/01/19 07:27:27;;;;;;;4.82;3.88;;;20.20;42.40;;;;;;5069478;28;20060;-60
2022/01/19 07:29:52;;;;;;;4.88;4.30;;;20.20;42.40;;;;;;5066628;28;20363;-61
2022/01/19 07:32:19;;;;;;;4.32;3.90;;;20.20;42.40;;;;;;5062516;28;20040;-61
2022/01/19 07:34:45;;;;;;;5.50;3.85;;;20.20;42.50;;;;;;5065859;28;20063;-61
2022/01/19 07:37:11;;;;;;;4.68;4.03;;;20.20;42.50;;;;;;5062835;28;43817;-60
2022/01/19 07:39:37;;;;;;;6.50;4.10;;;20.20;42.60;;;;;;5066182;28;20067;-61
2022/01/19 07:42:03;;;;;;;4.30;3.85;;;20.20;42.70;;;;;;5067284;28;20072;-60
2022/01/19 07:44:29;;;;;;;5.85;3.75;;;20.20;42.70;;;;;;5064430;28;20081;-61
2022/01/19 07:46:55;;;;;;;4.35;3.92;;;20.20;42.80;;;;;;5064936;28;20036;-61
2022/01/19 07:49:20;;;;;;;4.43;3.80;;;20.20;42.80;;;;;;5061413;28;20132;-61
2022/01/19 07:51:46;;;;;;;4.38;3.97;;;20.20;42.90;;;;;;5064964;28;34799;-61
2022/01/19 07:54:12;;;;;;;5.40;3.90;;;20.20;42.90;;;;;;5062548;28;20510;-61
2022/01/19 07:56:38;;;;;;;4.28;3.60;;;20.20;42.90;;;;;;5069126;28;20040;-60
2022/01/19 07:59:04;;;;;;;5.93;3.80;;;20.20;43.00;;;;;;5067003;28;20040;-61
2022/01/19 08:01:31;;;;;;;5.40;4.30;;;20.20;43.00;;;;;;5066962;28;20051;-60
2022/01/19 08:03:58;;;;;;;5.85;3.80;;;20.20;42.90;;;;;;5066095;28;20036;-61
2022/01/19 08:06:24;;;;;;;5.45;4.28;;;20.30;43.10;;;;;;5064490;28;43807;-60
2022/01/19 08:08:50;;;;;;;4.72;3.72;;;20.30;43.10;;;;;;5067961;28;20044;-60
2022/01/19 08:11:16;;;;;;;4.63;3.75;;;20.30;43.00;;;;;;5067633;28;20737;-61
2022/01/19 08:13:41;;;;;;;5.55;3.85;;;20.30;43.10;;;;;;5065973;28;20094;-60
2022/01/19 08:16:07;;;;;;;5.25;3.72;;;20.30;43.10;;;;;;5065747;28;20040;-61
2022/01/19 08:18:32;;;;;;;4.32;3.70;;;20.30;43.10;;;;;;5066493;28;41297;-61
2022/01/19 08:20:58;;;;;;;4.65;3.75;;;20.30;43.10;;;;;;5065806;28;20110;-61
2022/01/19 08:23:24;;;;;;;4.15;3.67;;;20.30;43.30;;;;;;5069187;28;20041;-59
2022/01/19 08:25:50;;;;;;;4.05;3.55;;;20.30;43.10;;;;;;5070084;28;20044;-60
2022/01/19 08:28:15;;;;;;;4.97;3.80;;;20.40;43.20;;;;;;5066645;28;20037;-60
2022/01/19 08:30:41;;;;;;;4.03;3.63;;;20.30;43.10;;;;;;5069528;28;20056;-60
2022/01/19 08:33:09;;;;;;;4.47;3.60;;;20.30;43.20;;;;;;5065868;28;20052;-61
2022/01/19 08:35:35;;;;;;;4.70;3.65;;;20.40;43.10;;;;;;5068957;28;20071;-61
2022/01/19 08:38:00;;;;;;;5.28;3.60;;;20.40;43.10;;;;;;5070854;28;20455;-61
2022/01/19 08:40:28;;;;;;;4.55;3.75;;;20.40;43.10;;;;;;5071602;28;20921;-61
2022/01/19 08:42:54;;;;;;;5.13;3.70;;;20.40;43.00;;;;;;5070458;28;20032;-61
2022/01/19 08:45:20;;;;;;;5.05;3.88;;;20.40;43.00;;;;;;5065760;28;20043;-61
2022/01/19 08:47:46;;;;;;;8.52;4.00;;;20.40;42.90;;;;;;5067861;28;20573;-61
2022/01/19 08:50:15;;;;;;;5.82;3.85;;;20.40;42.90;;;;;;5067581;28;20062;-61
2022/01/19 08:52:42;;;;;;;5.72;3.67;;;20.40;42.90;;;;;;5068772;28;41106;-61
2022/01/19 08:55:08;;;;;;;5.35;3.90;;;20.40;42.80;;;;;;5069369;28;20079;-61
2022/01/19 08:57:34;;;;;;;4.50;4.10;;;20.40;42.80;;;;;;5070571;28;20906;-61
2022/01/19 08:59:59;;;;;;;4.43;4.03;;;20.40;42.80;;;;;;5069204;28;20041;-61
2022/01/19 09:02:25;;;;;;;4.55;3.92;;;20.40;42.70;;;;;;5068354;28;20139;-61
2022/01/19 09:04:51;;;;;;;4.55;3.90;;;20.40;42.70;;;;;;5067834;28;43727;-61
2022/01/19 09:07:17;;;;;;;5.28;4.40;;;20.40;42.60;;;;;;5069420;28;20097;-62
2022/01/19 09:09:43;;;;;;;4.95;4.22;;;20.50;42.70;;;;;;5072214;28;20117;-61
2022/01/19 09:12:09;;;;;;;4.30;3.90;;;20.50;42.60;;;;;;5054778;28;20131;-61
2022/01/19 09:14:34;;;;;;;5.15;4.13;;;20.40;42.50;;;;;;5068938;28;20047;-61
2022/01/19 09:17:01;;;;;;;4.53;4.13;;;20.50;42.20;;;;;;5069028;28;20388;-61
2022/01/19 09:19:27;;;;;;;7.35;4.50;;;20.50;42.60;;;;;;5068072;28;40974;-61
2022/01/19 09:21:55;;;;;;;6.22;4.57;;;20.50;42.80;;;;;;5068463;28;20079;-61
2022/01/19 09:24:21;;;;;;;5.45;4.43;;;20.50;43.00;;;;;;5072368;28;20105;-61
2022/01/19 09:26:47;;;;;;;7.47;4.93;;;20.50;43.40;;;;;;5072581;28;20047;-61
2022/01/19 09:29:12;;;;;;;6.00;4.72;;;20.50;43.60;;;;;;5068828;28;20491;-61
2022/01/19 09:31:39;;;;;;;6.38;4.45;;;20.50;43.90;;;;;;5069444;28;20036;-61
2022/01/19 09:34:09;;;;;;;6.28;4.65;;;20.60;44.40;;;;;;5067508;28;39690;-61
2022/01/19 09:36:46;;;;;;;5.95;4.82;;;20.60;44.20;;;;;;5069721;28;20040;-62
2022/01/19 09:39:16;;;;;;;6.65;4.70;;;20.70;44.30;;;;;;5072690;28;20048;-61
2022/01/19 09:41:42;;;;;;;5.55;5.03;;;20.70;44.30;;;;;;5068308;28;20032;-61
2022/01/19 09:44:08;;;;;;;7.50;5.07;;;20.70;44.30;;;;;;5073259;28;20036;-62
2022/01/19 09:46:35;;;;;;;5.07;4.57;;;20.70;44.40;;;;;;5070191;28;20493;-62
2022/01/19 09:49:03;;;;;;;6.28;4.50;;;20.70;44.40;;;;;;5067046;28;36903;-61
2022/01/19 09:51:29;;;;;;;5.57;4.40;;;20.70;44.50;;;;;;5071522;28;20042;-61
2022/01/19 09:53:55;;;;;;;5.72;5.18;;;20.70;44.50;;;;;;5072423;28;20040;-61
2022/01/19 09:56:20;;;;;;;6.85;4.70;;;20.70;44.50;;;;;;5067632;28;20036;-61
2022/01/19 09:58:47;;;;;;;7.20;5.07;;;20.70;44.60;;;;;;5068192;28;20044;-61
2022/01/19 10:01:23;;;;;;;6.10;5.00;;;20.80;44.80;;;;;;5067356;28;41256;-61
2022/01/19 10:03:50;;;;;;;6.80;4.82;;;20.80;44.70;;;;;;5067673;28;20168;-62
2022/01/19 10:06:17;;;;;;;5.65;4.60;;;20.70;44.50;;;;;;5069990;28;20070;-61
2022/01/19 10:08:55;;;;;;;6.78;5.00;;;20.70;44.40;;;;;;5066364;28;20079;-61
2022/01/19 10:16:58;;;;;;;6.38;4.55;;;20.80;44.40;;;;;;5069184;28;21668;-60
2022/01/19 10:17:10;;;;;;;7.32;5.38;;;20.70;44.30;;;;;;5065187;28;42101;-62
2022/01/19 10:19:42;;;;;;;5.45;4.88;;;20.70;44.20;;;;;;5069987;28;20040;-62
2022/01/19 10:22:17;;;;;;;7.57;5.95;;;20.80;44.30;;;;;;5066496;28;20040;-61
2022/01/19 10:25:02;;;;;;;7.95;6.18;;;20.80;44.40;;;;;;5069500;28;20044;-61
2022/01/19 10:27:39;;;;;;;6.93;5.57;;;20.80;44.40;;;;;;5072815;28;20044;-61
2022/01/19 10:30:05;;;;;;;8.00;6.15;;;20.80;44.40;;;;;;5067583;28;36344;-60
2022/01/19 10:32:33;;;;;;;7.45;6.60;;;20.80;44.40;;;;;;5072234;28;20368;-61
2022/01/19 10:35:17;;;;;;;8.07;5.88;;;20.80;44.40;;;;;;5069859;28;20070;-61
2022/01/19 10:37:45;;;;;;;7.18;5.80;;;20.80;44.50;;;;;;5066784;28;20106;-62
2022/01/19 10:40:19;;;;;;;7.55;6.50;;;20.80;44.50;;;;;;5071235;28;20038;-62
2022/01/19 10:42:46;;;;;;;7.78;6.95;;;20.80;44.50;;;;;;5063443;28;20036;-61
2022/01/19 10:45:12;;;;;;;7.75;6.53;;;20.80;44.50;;;;;;5068623;28;38580;-61
2022/01/19 10:47:43;;;;;;;7.80;7.00;;;20.80;44.50;;;;;;5069340;28;20094;-62
2022/01/19 10:50:11;;;;;;;7.60;6.90;;;20.90;44.60;;;;;;5068479;28;20044;-61
2022/01/19 10:52:42;;;;;;;10.57;7.32;;;20.80;44.50;;;;;;5069148;28;20248;-61
2022/01/19 10:55:12;;;;;;;10.40;7.65;;;20.90;44.60;;;;;;5067508;28;20044;-62
2022/01/19 10:57:41;;;;;;;10.43;7.10;;;20.90;44.60;;;;;;5066682;28;36892;-60
2022/01/19 11:00:18;;;;;;;12.63;8.40;;;20.80;44.50;;;;;;5069774;28;20553;-62
2022/01/19 11:02:45;;;;;;;11.85;8.70;;;20.90;44.70;;;;;;5067723;28;20037;-60
2022/01/19 11:05:11;;;;;;;12.57;8.90;;;20.90;44.60;;;;;;5069328;28;20040;-61
2022/01/19 11:07:37;;;;;;;9.27;8.27;;;20.90;44.60;;;;;;5065856;28;20055;-60
2022/01/19 11:10:18;;;;;;;13.27;8.50;;;20.90;44.60;;;;;;5072046;28;20450;-61
2022/01/19 11:12:48;;;;;;;11.48;9.43;;;20.90;44.60;;;;;;5064098;28;40977;-61
2022/01/19 11:15:18;;;;;;;11.65;9.00;;;20.90;44.70;;;;;;5070656;28;20040;-62
2022/01/19 11:17:49;;;;;;;12.32;9.88;;;20.90;44.70;;;;;;5069509;28;20381;-60
2022/01/19 11:20:18;;;;;;;11.63;9.73;;;20.90;44.60;;;;;;5067751;28;20404;-61
2022/01/19 11:23:15;;;;;;;11.63;9.82;;;20.90;44.50;;;;;;5070135;28;20032;-61
2022/01/19 11:26:00;;;;;;;15.32;11.18;;;20.90;44.60;;;;;;5065050;28;41114;-60
2022/01/19 11:28:27;;;;;;;14.85;10.25;;;20.90;44.80;;;;;;5070746;28;20041;-60
2022/01/19 11:30:53;;;;;;;13.77;11.25;;;20.90;44.60;;;;;;5068930;28;20083;-61
2022/01/19 11:33:24;;;;;;;13.70;11.02;;;20.90;44.80;;;;;;5069478;28;20071;-61
2022/01/19 11:35:53;;;;;;;15.77;11.02;;;20.90;45.50;;;;;;5069897;28;20052;-61
2022/01/19 11:38:41;;;;;;;12.13;9.90;;;20.90;44.80;;;;;;5064268;28;20075;-60
2022/01/19 11:41:09;;;;;;;14.23;11.10;;;21.00;44.80;;;;;;5069884;28;41420;-61
2022/01/19 11:43:38;;;;;;;16.90;11.65;;;21.00;44.70;;;;;;5068296;28;20044;-61
2022/01/19 11:46:05;;;;;;;15.40;11.75;;;20.90;44.60;;;;;;5069049;28;20040;-60
2022/01/19 11:48:37;;;;;;;18.08;12.25;;;21.00;44.70;;;;;;5069558;28;20055;-61
2022/01/19 11:51:20;;;;;;;13.13;11.70;;;21.00;44.70;;;;;;5068768;28;20728;-60
2022/01/19 11:54:28;;;;;;;16.42;11.77;;;21.00;44.70;;;;;;5065766;28;36898;-61
2022/01/19 11:56:59;;;;;;;14.80;12.18;;;21.00;44.70;;;;;;5021824;28;20056;-61
2022/01/19 11:59:30;;;;;;;14.80;11.98;;;21.00;44.70;;;;;;5066523;28;20455;-62
2022/01/19 12:02:21;;;;;;;13.40;11.30;;;21.00;44.60;;;;;;5071254;28;20036;-61
2022/01/19 12:05:00;;;;;;;14.80;12.15;;;21.00;44.60;;;;;;5064753;28;20048;-61
2022/01/19 12:07:59;;;;;;;13.57;12.15;;;21.00;44.60;;;;;;5070108;28;20530;-61
2022/01/19 12:10:32;;;;;;;14.27;12.07;;;21.00;44.60;;;;;;5070935;28;20448;-61
2022/01/19 12:14:27;;;;;;;15.55;12.57;;;21.00;44.60;;;;;;5069054;28;20161;-61
2022/01/19 12:16:26;;;;;;;17.48;11.80;;;21.00;44.60;;;;;;5055857;28;20128;-61
2022/01/19 12:18:56;;;;;;;14.60;12.90;;;21.00;44.60;;;;;;5069956;28;20055;-61
2022/01/19 12:21:31;;;;;;;16.30;12.02;;;21.00;44.50;;;;;;5082222;28;20032;-61
2022/01/19 12:24:21;;;;;;;15.20;12.73;;;21.00;44.50;;;;;;5067809;28;36338;-61
2022/01/19 12:27:13;;;;;;;14.13;12.68;;;21.00;44.40;;;;;;5070524;28;20044;-61
2022/01/19 12:29:49;;;;;;;13.40;12.00;;;21.00;44.20;;;;;;5058138;28;20086;-61
2022/01/19 12:32:19;;;;;;;17.05;12.98;;;21.10;44.30;;;;;;5068803;28;20131;-61
2022/01/19 12:35:04;;;;;;;14.18;12.50;;;21.00;44.10;;;;;;5066849;28;20427;-61
2022/01/19 12:37:32;;;;;;;14.88;12.60;;;21.00;43.90;;;;;;5066732;28;41238;-61
2022/01/19 12:40:01;;;;;;;14.13;12.65;;;21.00;43.90;;;;;;5066495;28;20181;-61
2022/01/19 12:42:45;;;;;;;13.63;12.23;;;21.00;43.90;;;;;;5068274;28;20041;-61
2022/01/19 12:45:19;;;;;;;14.35;12.85;;;21.10;43.80;;;;;;5070968;28;20043;-62
2022/01/19 12:47:56;;;;;;;14.60;13.05;;;21.00;43.70;;;;;;5066641;28;20040;-61
2022/01/19 12:50:28;;;;;;;15.38;12.70;;;21.00;43.70;;;;;;5068595;28;40947;-61
2022/01/19 12:52:57;;;;;;;14.07;12.55;;;21.00;43.50;;;;;;5066708;28;20071;-61
2022/01/19 12:55:24;;;;;;;13.65;12.10;;;21.00;43.50;;;;;;5067761;28;20051;-62
2022/01/19 12:57:51;;;;;;;14.52;13.05;;;21.00;43.40;;;;;;5068909;28;20086;-61
2022/01/19 13:00:23;;;;;;;14.68;12.32;;;21.00;43.30;;;;;;5067834;28;20118;-61
2022/01/19 13:02:49;;;;;;;15.25;12.27;;;21.10;43.40;;;;;;5069943;28;20123;-61
2022/01/19 13:05:18;;;;;;;14.82;13.00;;;21.00;43.30;;;;;;5059496;28;40945;-61
2022/01/19 13:07:56;;;;;;;13.75;12.27;;;21.00;43.30;;;;;;5068440;28;20084;-61
2022/01/19 13:16:04;;;;;;;13.10;11.80;;;21.00;43.40;;;;;;5023247;28;20052;-61
2022/01/19 13:18:37;;;;;;;14.18;12.65;;;21.00;43.30;;;;;;5052508;28;36337;-61
2022/01/19 13:21:09;;;;;;;13.82;11.60;;;21.00;43.30;;;;;;5065007;28;20492;-61
2022/01/19 13:23:59;;;;;;;14.65;12.32;;;21.00;43.30;;;;;;5073198;28;20556;-61
2022/01/19 13:26:42;;;;;;;13.35;11.98;;;21.00;43.30;;;;;;5067552;28;20127;-61
2022/01/19 13:29:22;;;;;;;13.75;12.13;;;21.00;43.30;;;;;;5073379;28;20043;-61
2022/01/19 13:32:15;;;;;;;13.18;11.77;;;21.00;43.30;;;;;;5072507;28;20040;-61
2022/01/19 13:35:02;;;;;;;13.43;12.13;;;21.00;43.30;;;;;;5070664;28;20055;-61
2022/01/19 13:37:58;;;;;;;13.40;11.43;;;21.00;43.30;;;;;;5070244;28;20036;-61
2022/01/19 13:40:27;;;;;;;13.43;11.48;;;21.00;43.20;;;;;;5050950;28;20130;-61
2022/01/19 13:43:01;;;;;;;13.23;11.85;;;21.00;44.00;;;;;;5069810;28;20043;-61
2022/01/19 13:45:35;;;;;;;12.73;11.48;;;21.00;43.20;;;;;;5073597;28;20024;-61
2022/01/19 13:50:30;;;;;;;14.40;12.18;;;21.00;43.30;;;;;;5074069;28;20077;-61
2022/01/19 13:52:56;;;;;;;15.07;11.30;;;21.00;43.30;;;;;;5058573;28;20044;-61
2022/01/19 13:55:24;;;;;;;13.82;12.18;;;21.00;43.30;;;;;;5069668;28;20677;-61
2022/01/19 13:57:50;;;;;;;15.68;12.32;;;21.00;43.40;;;;;;5068785;28;20102;-61
2022/01/19 14:00:18;;;;;;;13.05;11.50;;;21.00;43.50;;;;;;5068494;28;38865;-61
2022/01/19 14:03:00;;;;;;;12.80;11.43;;;21.00;43.60;;;;;;5071904;28;20399;-61
2022/01/19 14:05:42;;;;;;;12.82;11.10;;;21.00;43.60;;;;;;5067877;28;20087;-61
2022/01/19 14:08:09;;;;;;;12.60;11.30;;;21.00;43.70;;;;;;5070771;28;20110;-61
2022/01/19 14:10:47;;;;;;;12.48;11.20;;;21.00;43.80;;;;;;5066904;28;20051;-61
2022/01/19 14:13:41;;;;;;;12.88;11.52;;;20.90;44.50;;;;;;5068729;28;20436;-61
2022/01/19 14:16:26;;;;;;;11.65;10.45;;;21.00;44.00;;;;;;5050733;28;27097;-61
2022/01/19 14:19:07;;;;;;;12.45;10.52;;;20.90;43.90;;;;;;5068995;28;20736;-61
2022/01/19 14:21:32;;;;;;;11.93;10.60;;;20.90;44.00;;;;;;5065937;28;20945;-61
2022/01/19 14:23:59;;;;;;;11.93;10.65;;;20.90;44.00;;;;;;5068316;28;20048;-61
2022/01/19 14:26:25;;;;;;;12.43;11.10;;;20.90;44.10;;;;;;5067007;28;20146;-61
2022/01/19 14:29:13;;;;;;;12.32;10.35;;;20.90;44.10;;;;;;5068007;28;43830;-61
2022/01/19 14:31:52;;;;;;;13.60;11.10;;;20.90;44.00;;;;;;5064927;28;20114;-61